KCIC/CIC METAR and TAF weather

Enter ICAO airport designator
Station Type Date Time Source
KCIC METAR 2019/08/19 01:48 UTC NOAA

KCIC 190148Z 16010KT 25SM FEW080 30/07 A2978 RMK LAST


Station Type Date Time Source
KCIC Decoded METAR 2019/08/19 01:48 UTC NOAA

Station name not available
Aug 18, 2019 - 09:48 PM EDT / 2019.08.19 0148 UTC
Wind: from the SSE (160 degrees) at 12 MPH (10 KT):0
Visibility: 25 mile(s):0
Sky conditions: mostly clear
Temperature: 86 F (30 C)
Dew Point: 44 F (7 C)
Relative Humidity: 23%
Pressure (altimeter): 29.78 in. Hg (1008 hPa)
ob: KCIC 190148Z 16010KT 25SM FEW080 30/07 A2978 RMK LAST
cycle: 2

Station Type Date Time Source
KCIC TAF UTC NOAA

Error!

Example: see airport list